KAIA/AIA METAR and TAF weather

Enter ICAO airport designator
Station Type Date Time Source
KAIA METAR 2019/10/20 19:53 UTC NOAA

KAIA 201953Z AUTO 26020KT 10SM FEW034 SCT042 10/M01 A2948 RMK AO2 PK WND 27028/1854 RAB19E28 SLP973 P0000 T01001006


Station Type Date Time Source
KAIA Decoded METAR 2019/10/20 19:53 UTC NOAA

ALLIANCE MUNICIPAL AIRPORT, NE, United States (KAIA) 42-03N 102-48W 1196M
Oct 20, 2019 - 03:53 PM EDT / 2019.10.20 1953 UTC
Wind: from the W (260 degrees) at 23 MPH (20 KT):0
Visibility: 10 mile(s):0
Sky conditions: partly cloudy
Precipitation last hour: A trace
Temperature: 50.0 F (10.0 C)
Dew Point: 30.9 F (-0.6 C)
Relative Humidity: 47%
Pressure (altimeter): 29.48 in. Hg (998 hPa)
ob: KAIA 201953Z AUTO 26020KT 10SM FEW034 SCT042 10/M01 A2948 RMK AO2 PK WND 27028/1854 RAB19E28 SLP973 P0000 T01001006
cycle: 20

Station Type Date Time Source
KAIA TAF 2019/10/20 18:28 UTC NOAA

TAF KAIA 201726Z 2018/2118 27022G35KT P6SM VCSH SCT060 SCT100
FM210000 32030G42KT 3SM -SHRASN SCT020 OVC030
FM210400 31025G35KT 2SM -SNRA BR OVC015
FM210800 31020G30KT P6SM SCT080

Example: see airport list